createdAt,value
2019-05-05T00:00:29.176Z,99.90
2019-05-05T00:02:04.328Z,99.90
2019-05-05T00:03:41.994Z,99.90
2019-05-05T00:04:54.463Z,99.90
2019-05-05T00:06:05.296Z,99.90
2019-05-05T00:07:10.377Z,99.90
2019-05-05T00:08:15.383Z,99.90
2019-05-05T00:09:21.346Z,99.90
2019-05-05T00:10:34.750Z,99.90
2019-05-05T00:11:47.388Z,99.90
2019-05-05T00:13:04.497Z,99.90
2019-05-05T00:14:15.487Z,99.90
2019-05-05T00:15:38.171Z,99.90
2019-05-05T00:16:51.485Z,99.90
2019-05-05T00:17:56.481Z,99.90
2019-05-05T00:19:01.261Z,99.90
2019-05-05T00:20:07.177Z,99.90
2019-05-05T00:21:12.434Z,99.90
2019-05-05T00:22:17.278Z,99.90
2019-05-05T00:23:22.090Z,99.90
2019-05-05T00:24:26.875Z,99.90
2019-05-05T00:25:31.663Z,99.90
2019-05-05T00:26:37.399Z,99.90
2019-05-05T00:27:42.132Z,99.90
2019-05-05T00:28:46.938Z,99.90
2019-05-05T00:29:51.754Z,99.90
2019-05-05T00:30:56.578Z,99.90
2019-05-05T00:32:01.406Z,99.90
2019-05-05T00:33:06.523Z,99.90
2019-05-05T00:34:11.299Z,99.90
2019-05-05T00:35:17.286Z,99.90
2019-05-05T00:36:22.203Z,99.90
2019-05-05T00:37:27.009Z,99.90
2019-05-05T00:38:31.873Z,99.90
2019-05-05T00:39:36.762Z,99.90
2019-05-05T00:40:41.789Z,99.90
2019-05-05T00:41:46.493Z,99.90
2019-05-05T00:42:51.291Z,99.90
2019-05-05T00:43:56.302Z,99.90
2019-05-05T00:45:00.911Z,99.90
2019-05-05T00:46:11.526Z,99.90
2019-05-05T00:47:54.459Z,99.90
2019-05-05T00:48:59.390Z,99.90
2019-05-05T00:50:05.355Z,99.90
2019-05-05T00:51:10.343Z,99.90
2019-05-05T00:52:15.357Z,99.90
2019-05-05T00:53:20.091Z,99.90
2019-05-05T00:54:24.782Z,99.90
2019-05-05T00:55:29.496Z,99.90
2019-05-05T00:56:34.356Z,99.90
2019-05-05T00:57:38.946Z,99.90
2019-05-05T00:58:49.224Z,99.90
2019-05-05T00:59:54.444Z,99.90
2019-05-05T01:01:11.081Z,99.90
2019-05-05T01:02:37.911Z,99.90
2019-05-05T01:03:44.187Z,99.90
2019-05-05T01:05:01.487Z,99.90
2019-05-05T01:06:11.718Z,99.90
2019-05-05T01:07:16.482Z,99.90
2019-05-05T01:08:24.965Z,99.90
2019-05-05T01:09:30.573Z,99.90
2019-05-05T01:10:35.478Z,99.90
2019-05-05T01:11:40.117Z,99.90
2019-05-05T01:12:45.097Z,99.90
2019-05-05T01:13:50.064Z,99.90
2019-05-05T01:14:55.356Z,99.90
2019-05-05T01:16:00.369Z,99.90
2019-05-05T01:17:05.360Z,99.90
2019-05-05T01:18:10.369Z,99.90
2019-05-05T01:19:15.327Z,99.90
2019-05-05T01:20:20.175Z,99.90
2019-05-05T01:21:24.785Z,99.90
2019-05-05T01:22:29.513Z,99.90
2019-05-05T01:23:35.078Z,99.90
2019-05-05T01:24:42.865Z,99.90
2019-05-05T01:25:48.763Z,99.90
2019-05-05T01:26:55.090Z,99.90
2019-05-05T01:28:01.091Z,99.90
2019-05-05T01:29:07.560Z,99.90
2019-05-05T01:30:15.851Z,99.90
2019-05-05T01:31:21.098Z,99.90
2019-05-05T01:32:30.385Z,99.90
2019-05-05T01:33:44.886Z,99.90
2019-05-05T01:34:49.730Z,99.90
2019-05-05T01:35:55.240Z,99.90
2019-05-05T01:37:25.360Z,99.90
2019-05-05T01:38:58.117Z,99.90
2019-05-05T01:40:14.182Z,99.90
2019-05-05T01:41:28.198Z,99.90
2019-05-05T01:42:32.900Z,99.90
2019-05-05T01:43:37.824Z,99.90
2019-05-05T01:44:44.644Z,99.90
2019-05-05T01:45:49.126Z,99.90
2019-05-05T01:46:55.036Z,99.90
2019-05-05T01:48:01.860Z,99.90
2019-05-05T01:49:06.719Z,99.90
2019-05-05T01:50:18.341Z,99.90
2019-05-05T01:51:19.908Z,99.90
2019-05-05T01:52:25.420Z,99.90
2019-05-05T01:53:30.337Z,99.90
2019-05-05T01:54:35.383Z,99.90
2019-05-05T01:55:40.423Z,99.90
2019-05-05T01:56:47.658Z,99.90
2019-05-05T01:57:54.348Z,99.90
2019-05-05T01:58:59.268Z,99.90
2019-05-05T02:00:04.612Z,99.90
2019-05-05T02:01:09.477Z,99.90
2019-05-05T02:02:14.759Z,99.90
2019-05-05T02:03:19.709Z,99.90
2019-05-05T02:04:25.181Z,99.90
2019-05-05T02:05:30.030Z,99.90
2019-05-05T02:06:35.101Z,99.90
2019-05-05T02:07:39.938Z,99.90
2019-05-05T02:08:45.454Z,99.90
2019-05-05T02:09:50.457Z,99.90
2019-05-05T02:10:56.197Z,99.90
2019-05-05T02:12:00.928Z,99.90
2019-05-05T02:13:05.786Z,99.90
2019-05-05T02:14:10.551Z,99.90
2019-05-05T02:15:15.362Z,99.90
2019-05-05T02:16:20.129Z,99.90
2019-05-05T02:17:24.940Z,99.90
2019-05-05T02:18:29.824Z,99.90
2019-05-05T02:19:35.166Z,99.90
2019-05-05T02:20:51.412Z,99.90
2019-05-05T02:21:57.206Z,99.90
2019-05-05T02:23:01.980Z,99.90
2019-05-05T02:24:06.681Z,99.90
2019-05-05T02:25:17.041Z,99.90
2019-05-05T02:26:21.782Z,99.90
2019-05-05T02:27:26.555Z,99.90
2019-05-05T02:28:37.831Z,99.90
2019-05-05T02:29:58.241Z,99.90
2019-05-05T02:31:16.421Z,99.90
2019-05-05T02:32:37.867Z,99.90
2019-05-05T02:33:45.820Z,99.90
2019-05-05T02:34:56.244Z,99.90
2019-05-05T02:36:00.241Z,99.90
2019-05-05T02:37:05.635Z,99.90
2019-05-05T02:38:11.643Z,99.90
2019-05-05T02:39:16.469Z,99.90
2019-05-05T02:40:21.157Z,99.90
2019-05-05T02:41:26.025Z,99.90
2019-05-05T02:42:31.667Z,99.90
2019-05-05T02:43:37.749Z,99.90
2019-05-05T02:44:45.540Z,99.90
2019-05-05T02:46:05.627Z,99.90
2019-05-05T02:47:35.543Z,99.90
2019-05-05T02:48:41.361Z,99.90
2019-05-05T02:49:47.918Z,99.90
2019-05-05T02:51:01.625Z,99.90
2019-05-05T02:52:04.863Z,99.90
2019-05-05T02:53:11.065Z,99.90
2019-05-05T02:54:17.611Z,99.90
2019-05-05T02:55:23.638Z,99.90
2019-05-05T02:56:34.867Z,99.90
2019-05-05T02:57:39.770Z,99.90
2019-05-05T02:58:46.424Z,99.90
2019-05-05T02:59:59.221Z,99.90
2019-05-05T03:01:29.495Z,99.90
2019-05-05T03:02:36.113Z,99.90
2019-05-05T03:03:41.008Z,99.90
2019-05-05T03:04:46.213Z,99.90
2019-05-05T03:05:53.818Z,99.90
2019-05-05T03:07:01.855Z,99.90
2019-05-05T03:08:06.684Z,99.90
2019-05-05T03:09:13.841Z,99.90
2019-05-05T03:10:18.785Z,99.90
2019-05-05T03:11:24.014Z,99.90
2019-05-05T03:12:31.862Z,99.90
2019-05-05T03:13:38.648Z,99.90
2019-05-05T03:14:45.130Z,99.90
2019-05-05T03:15:54.990Z,99.90
2019-05-05T03:17:00.013Z,99.90
2019-05-05T03:18:04.929Z,99.90
2019-05-05T03:19:10.748Z,99.90
2019-05-05T03:20:15.772Z,99.90
2019-05-05T03:21:21.401Z,99.90
2019-05-05T03:22:26.613Z,99.90
2019-05-05T03:23:33.367Z,99.90
2019-05-05T03:24:38.392Z,99.90
2019-05-05T03:25:44.020Z,99.90
2019-05-05T03:26:49.855Z,99.90
2019-05-05T03:27:54.551Z,99.90
2019-05-05T03:29:00.437Z,99.90
2019-05-05T03:30:05.746Z,99.90
2019-05-05T03:31:10.578Z,99.90
2019-05-05T03:32:16.396Z,99.90
2019-05-05T03:33:24.950Z,99.90
2019-05-05T03:34:28.612Z,99.90
2019-05-05T03:35:34.588Z,99.90
2019-05-05T03:36:39.457Z,99.90
2019-05-05T03:37:44.663Z,99.90
2019-05-05T03:38:55.293Z,99.90
2019-05-05T03:40:07.416Z,99.90
2019-05-05T03:41:40.803Z,99.90
2019-05-05T03:42:53.586Z,99.90
2019-05-05T03:44:05.618Z,99.90
2019-05-05T03:45:17.940Z,99.90
2019-05-05T03:46:23.786Z,99.90
2019-05-05T03:47:28.964Z,99.90
2019-05-05T03:48:34.634Z,99.90
2019-05-05T03:49:39.743Z,99.90
2019-05-05T03:50:44.686Z,99.90
2019-05-05T03:51:49.614Z,99.90
2019-05-05T03:52:54.795Z,99.90
2019-05-05T03:53:59.723Z,99.90
2019-05-05T03:55:05.546Z,99.90
2019-05-05T03:56:10.622Z,99.90
2019-05-05T03:57:15.567Z,99.90
2019-05-05T03:58:20.609Z,99.90
2019-05-05T03:59:25.159Z,99.90
2019-05-05T04:01:10.652Z,99.90
2019-05-05T04:02:27.623Z,99.90
2019-05-05T04:03:34.054Z,99.90
2019-05-05T04:04:44.218Z,99.90
2019-05-05T04:05:56.314Z,99.90
2019-05-05T04:07:01.212Z,99.90
2019-05-05T04:08:05.958Z,99.90
2019-05-05T04:09:10.807Z,99.90
2019-05-05T04:10:15.750Z,99.90
2019-05-05T04:11:23.584Z,99.90
2019-05-05T04:12:27.996Z,99.90
2019-05-05T04:13:34.482Z,99.90
2019-05-05T04:14:40.385Z,99.90
2019-05-05T04:15:46.832Z,99.90
2019-05-05T04:17:20.191Z,99.90
2019-05-05T04:18:29.983Z,99.90
2019-05-05T04:19:35.667Z,99.90
2019-05-05T04:20:44.029Z,99.90
2019-05-05T04:21:48.612Z,99.90
2019-05-05T04:22:54.283Z,99.90
2019-05-05T04:23:59.919Z,99.90
2019-05-05T04:25:04.916Z,99.90
2019-05-05T04:26:09.561Z,99.90
2019-05-05T04:27:14.787Z,99.90
2019-05-05T04:28:19.575Z,99.90
2019-05-05T04:29:24.495Z,99.90
2019-05-05T04:30:29.418Z,99.90
2019-05-05T04:31:34.602Z,99.90
2019-05-05T04:32:39.363Z,99.90
2019-05-05T04:33:45.599Z,99.90
2019-05-05T04:34:55.783Z,99.90
2019-05-05T04:36:01.494Z,99.90
2019-05-05T04:37:08.076Z,99.90
2019-05-05T04:38:15.056Z,99.90
2019-05-05T04:39:30.782Z,99.90
2019-05-05T04:40:40.052Z,99.90
2019-05-05T04:41:44.767Z,99.90
2019-05-05T04:42:55.060Z,99.90
2019-05-05T04:44:03.992Z,99.90
2019-05-05T04:45:09.640Z,99.90
2019-05-05T04:46:19.021Z,99.90
2019-05-05T04:47:28.527Z,99.90
2019-05-05T04:48:40.778Z,99.90
2019-05-05T04:49:53.699Z,99.90
2019-05-05T04:51:14.842Z,99.90
2019-05-05T04:52:19.752Z,99.90
2019-05-05T04:53:29.475Z,99.90
2019-05-05T04:54:45.281Z,99.90
2019-05-05T04:55:49.937Z,99.90
2019-05-05T04:56:54.508Z,99.90
2019-05-05T04:57:59.176Z,99.90
2019-05-05T04:59:04.130Z,99.90
2019-05-05T05:00:09.080Z,99.90
2019-05-05T05:01:13.844Z,99.90
2019-05-05T05:02:30.077Z,99.90
2019-05-05T05:03:41.021Z,99.90
2019-05-05T05:04:53.604Z,99.90
2019-05-05T05:06:01.647Z,99.90
2019-05-05T05:07:06.708Z,99.90
2019-05-05T05:08:11.339Z,99.90
2019-05-05T05:09:15.936Z,99.90
2019-05-05T05:10:20.616Z,99.90
2019-05-05T05:11:25.240Z,99.90
2019-05-05T05:12:30.014Z,98.20
2019-05-05T05:13:34.919Z,96.50
2019-05-05T05:14:39.848Z,96.90
2019-05-05T05:15:44.781Z,96.80
2019-05-05T05:16:50.118Z,95.90
2019-05-05T05:18:01.712Z,94.90
2019-05-05T05:19:06.483Z,91.50
2019-05-05T05:20:11.624Z,84.90
2019-05-05T05:21:16.255Z,78.20
2019-05-05T05:22:21.100Z,77.00
2019-05-05T05:23:25.768Z,70.10
2019-05-05T05:24:30.425Z,69.80
2019-05-05T05:25:35.247Z,67.50
2019-05-05T05:26:40.961Z,65.00
2019-05-05T05:27:45.659Z,64.90
2019-05-05T05:28:50.385Z,66.60
2019-05-05T05:29:55.193Z,67.80
2019-05-05T05:31:00.071Z,64.00
2019-05-05T05:32:04.835Z,61.80
2019-05-05T05:33:09.714Z,60.10
2019-05-05T05:34:16.655Z,58.40
2019-05-05T05:35:21.271Z,56.90
2019-05-05T05:36:25.977Z,54.20
2019-05-05T05:37:30.644Z,50.10
2019-05-05T05:38:35.378Z,47.50
2019-05-05T05:39:45.994Z,42.70
2019-05-05T05:41:04.245Z,34.10
2019-05-05T05:42:09.255Z,31.10
2019-05-05T05:43:17.388Z,29.10
2019-05-05T05:44:39.838Z,26.20
2019-05-05T05:45:54.212Z,28.90
2019-05-05T05:47:05.232Z,27.40
2019-05-05T05:48:25.479Z,28.10
2019-05-05T05:49:36.869Z,21.90
2019-05-05T05:50:50.940Z,18.10
2019-05-05T05:51:55.703Z,12.20
2019-05-05T05:53:00.527Z,3.50
2019-05-05T05:54:05.257Z,1.20
2019-05-05T05:55:10.055Z,1.00
2019-05-05T05:56:14.838Z,1.00
2019-05-05T05:57:19.426Z,1.00
2019-05-05T05:58:24.481Z,1.00
2019-05-05T05:59:30.619Z,1.00
2019-05-05T06:00:35.443Z,1.00
2019-05-05T06:01:40.271Z,1.00
2019-05-05T06:02:45.142Z,99.90
2019-05-05T06:03:50.085Z,99.90
2019-05-05T06:04:55.040Z,99.90
2019-05-05T06:05:59.788Z,99.90
2019-05-05T06:07:04.639Z,99.90
2019-05-05T06:08:09.399Z,99.90
2019-05-05T06:09:14.864Z,99.90
2019-05-05T06:10:23.920Z,99.90
2019-05-05T06:11:26.110Z,99.90
2019-05-05T06:12:30.800Z,99.90
2019-05-05T06:13:35.651Z,99.90
2019-05-05T06:14:40.280Z,99.90
2019-05-05T06:15:44.954Z,99.10
2019-05-05T06:16:49.827Z,98.10
2019-05-05T06:17:54.541Z,97.50
2019-05-05T06:18:59.347Z,96.40
2019-05-05T06:20:04.727Z,95.90
2019-05-05T06:21:09.485Z,96.00
2019-05-05T06:22:27.859Z,95.30
2019-05-05T06:23:20.576Z,95.00
2019-05-05T06:24:25.455Z,94.20
2019-05-05T06:25:30.128Z,92.90
2019-05-05T06:26:36.531Z,92.30
2019-05-05T06:27:41.298Z,92.10
2019-05-05T06:28:46.341Z,91.60
2019-05-05T06:29:54.114Z,91.90
2019-05-05T06:30:58.472Z,91.60
2019-05-05T06:32:03.997Z,91.50
2019-05-05T06:33:09.808Z,90.70
2019-05-05T06:34:15.311Z,90.90
2019-05-05T06:35:29.343Z,91.00
2019-05-05T06:36:34.215Z,91.10
2019-05-05T06:37:43.504Z,91.20
2019-05-05T06:38:47.876Z,90.80
2019-05-05T06:39:54.959Z,90.60
2019-05-05T06:41:11.097Z,90.10
2019-05-05T06:42:31.766Z,90.40
2019-05-05T06:44:07.979Z,90.00
2019-05-05T06:45:36.513Z,88.60
2019-05-05T06:46:58.888Z,88.00
2019-05-05T06:48:04.368Z,87.40
2019-05-05T06:49:09.386Z,85.80
2019-05-05T06:50:14.332Z,83.80
2019-05-05T06:51:20.228Z,84.00
2019-05-05T06:52:24.972Z,85.00
2019-05-05T06:53:29.885Z,82.10
2019-05-05T06:54:35.011Z,81.00
2019-05-05T06:55:39.765Z,80.70
2019-05-05T06:56:44.877Z,81.00
2019-05-05T06:57:49.690Z,80.10
2019-05-05T06:58:54.729Z,79.40
2019-05-05T06:59:59.526Z,76.80
2019-05-05T07:01:04.286Z,76.00
2019-05-05T07:02:08.988Z,76.50
2019-05-05T07:03:14.039Z,75.70
2019-05-05T07:04:18.872Z,75.50
2019-05-05T07:05:23.776Z,75.00
2019-05-05T07:06:28.599Z,75.20
2019-05-05T07:07:34.240Z,75.90
2019-05-05T07:08:39.304Z,75.60
2019-05-05T07:09:44.456Z,73.30
2019-05-05T07:10:49.129Z,69.70
2019-05-05T07:11:54.233Z,70.70
2019-05-05T07:12:59.066Z,70.00
2019-05-05T07:14:03.884Z,68.40
2019-05-05T07:15:08.677Z,68.10
2019-05-05T07:16:14.932Z,70.70
2019-05-05T07:17:19.789Z,70.30
2019-05-05T07:18:24.818Z,71.50
2019-05-05T07:19:29.546Z,69.80
2019-05-05T07:20:34.715Z,68.10
2019-05-05T07:21:39.583Z,69.30
2019-05-05T07:22:58.413Z,70.40
2019-05-05T07:23:50.744Z,69.60
2019-05-05T07:24:55.566Z,70.60
2019-05-05T07:26:00.201Z,73.60
2019-05-05T07:27:05.068Z,72.00
2019-05-05T07:28:09.653Z,69.60
2019-05-05T07:29:16.484Z,68.70
2019-05-05T07:30:20.770Z,68.40
2019-05-05T07:31:26.308Z,65.70
2019-05-05T07:32:30.944Z,64.10
2019-05-05T07:33:35.590Z,62.40
2019-05-05T07:35:08.552Z,62.80
2019-05-05T07:36:31.027Z,63.20
2019-05-05T07:37:35.696Z,61.40
2019-05-05T07:38:40.377Z,61.60
2019-05-05T07:39:44.977Z,59.20
2019-05-05T07:40:49.659Z,57.70
2019-05-05T07:41:55.279Z,58.30
2019-05-05T07:43:00.014Z,59.50
2019-05-05T07:44:05.854Z,61.90
2019-05-05T07:45:20.240Z,62.50
2019-05-05T07:46:16.932Z,63.10
2019-05-05T07:47:23.382Z,62.50
2019-05-05T07:48:27.933Z,62.10
2019-05-05T07:49:33.598Z,61.30
2019-05-05T07:50:38.487Z,60.30
2019-05-05T07:51:44.267Z,60.40
2019-05-05T07:52:49.177Z,59.70
2019-05-05T07:53:54.718Z,59.10
2019-05-05T07:54:59.514Z,59.30
2019-05-05T07:56:07.478Z,59.70
2019-05-05T07:57:10.668Z,62.20
2019-05-05T07:58:15.579Z,59.20
2019-05-05T07:59:20.333Z,58.00
2019-05-05T08:00:25.115Z,57.80
2019-05-05T08:01:29.698Z,58.10
2019-05-05T08:02:34.385Z,59.40
2019-05-05T08:03:39.012Z,58.90
2019-05-05T08:04:43.812Z,59.50
2019-05-05T08:05:48.700Z,60.10
2019-05-05T08:06:53.858Z,60.60
2019-05-05T08:07:58.788Z,58.10
2019-05-05T08:09:04.899Z,57.40
2019-05-05T08:10:09.976Z,56.60
2019-05-05T08:11:14.926Z,58.20
2019-05-05T08:12:20.485Z,61.20
2019-05-05T08:13:25.243Z,58.80
2019-05-05T08:14:29.942Z,59.10
2019-05-05T08:15:34.837Z,58.40
2019-05-05T08:16:55.560Z,56.00
2019-05-05T08:18:15.516Z,53.70
2019-05-05T08:19:34.499Z,53.70
2019-05-05T08:20:41.924Z,56.00
2019-05-05T08:21:46.564Z,55.60
2019-05-05T08:22:51.224Z,55.30
2019-05-05T08:24:10.437Z,54.50
2019-05-05T08:25:40.280Z,55.10
2019-05-05T08:27:10.227Z,53.30
2019-05-05T08:28:23.687Z,50.90
2019-05-05T08:29:31.109Z,53.30
2019-05-05T08:30:44.622Z,50.20
2019-05-05T08:31:56.219Z,51.90
2019-05-05T08:33:00.971Z,53.20
2019-05-05T08:34:05.721Z,52.00
2019-05-05T08:35:10.777Z,52.20
2019-05-05T08:36:16.551Z,53.20
2019-05-05T08:37:23.494Z,52.60
2019-05-05T08:38:27.732Z,50.10
2019-05-05T08:39:34.343Z,50.90
2019-05-05T08:40:38.927Z,51.90
2019-05-05T08:41:45.358Z,53.50
2019-05-05T08:42:49.975Z,51.30
2019-05-05T08:43:54.664Z,51.20
2019-05-05T08:44:59.486Z,51.10
2019-05-05T08:46:04.929Z,50.30
2019-05-05T08:47:09.868Z,51.00
2019-05-05T08:48:14.705Z,52.10
2019-05-05T08:49:19.440Z,53.20
2019-05-05T08:50:26.995Z,51.00
2019-05-05T08:51:30.738Z,50.80
2019-05-05T08:52:35.364Z,51.80
2019-05-05T08:53:44.899Z,52.70
2019-05-05T08:54:46.540Z,53.20
2019-05-05T08:55:51.137Z,53.60
2019-05-05T08:56:56.148Z,51.10
2019-05-05T08:58:00.897Z,52.60
2019-05-05T08:59:05.537Z,52.00
2019-05-05T09:00:13.626Z,53.80
2019-05-05T09:01:18.019Z,55.50
2019-05-05T09:02:23.913Z,55.50
2019-05-05T09:03:28.780Z,56.60
2019-05-05T09:04:34.072Z,55.50
2019-05-05T09:05:38.995Z,54.40
2019-05-05T09:06:44.245Z,54.00
2019-05-05T09:07:49.121Z,55.00
2019-05-05T09:08:55.214Z,55.20
2019-05-05T09:10:00.997Z,54.50
2019-05-05T09:11:06.833Z,55.90
2019-05-05T09:12:13.726Z,59.10
2019-05-05T09:13:18.288Z,58.40
2019-05-05T09:14:24.642Z,57.60
2019-05-05T09:15:29.484Z,52.00
2019-05-05T09:16:34.190Z,50.20
2019-05-05T09:17:38.982Z,50.20
2019-05-05T09:19:04.911Z,50.40
2019-05-05T09:20:10.033Z,51.70
2019-05-05T09:21:15.121Z,52.80
2019-05-05T09:22:20.012Z,52.40
2019-05-05T09:23:24.721Z,53.30
2019-05-05T09:24:38.811Z,54.50
2019-05-05T09:25:53.874Z,55.40
2019-05-05T09:27:20.795Z,52.40
2019-05-05T09:28:34.170Z,51.10
2019-05-05T09:29:41.066Z,50.90
2019-05-05T09:30:47.974Z,50.80
2019-05-05T09:31:54.009Z,51.40
2019-05-05T09:32:58.997Z,52.40
2019-05-05T09:34:04.210Z,54.00
2019-05-05T09:35:09.199Z,53.30
2019-05-05T09:36:14.208Z,54.40
2019-05-05T09:37:19.055Z,55.30
2019-05-05T09:38:23.976Z,52.90
2019-05-05T09:39:28.925Z,53.70
2019-05-05T09:40:37.050Z,51.80
2019-05-05T09:41:42.014Z,52.70
2019-05-05T09:42:46.728Z,52.70
2019-05-05T09:43:53.788Z,50.40
2019-05-05T09:44:58.620Z,52.30
2019-05-05T09:46:04.026Z,53.10
2019-05-05T09:47:09.088Z,52.00
2019-05-05T09:48:14.175Z,54.30
2019-05-05T09:49:19.132Z,51.50
2019-05-05T09:50:24.077Z,51.90
2019-05-05T09:51:28.880Z,53.90
2019-05-05T09:52:33.873Z,54.00
2019-05-05T09:53:38.636Z,54.70
2019-05-05T09:54:43.983Z,54.00
2019-05-05T09:55:48.923Z,53.30
2019-05-05T09:56:53.899Z,51.40
2019-05-05T09:57:58.984Z,51.30
2019-05-05T09:59:03.851Z,52.80
2019-05-05T10:00:13.843Z,53.60
2019-05-05T10:01:18.053Z,51.40
2019-05-05T10:02:24.031Z,51.50
2019-05-05T10:03:28.957Z,50.60
2019-05-05T10:04:34.175Z,51.60
2019-05-05T10:05:38.962Z,53.50
2019-05-05T10:06:47.751Z,54.30
2019-05-05T10:07:50.434Z,53.80
2019-05-05T10:08:55.147Z,51.10
2019-05-05T10:09:59.970Z,49.60
2019-05-05T10:11:04.847Z,49.10
2019-05-05T10:12:09.523Z,49.80
2019-05-05T10:13:15.036Z,51.40
2019-05-05T10:14:20.041Z,51.90
2019-05-05T10:15:25.004Z,51.70
2019-05-05T10:16:29.710Z,52.40
2019-05-05T10:17:34.419Z,52.30
2019-05-05T10:18:39.105Z,53.10
2019-05-05T10:19:44.129Z,53.40
2019-05-05T10:20:48.859Z,53.70
2019-05-05T10:21:54.609Z,55.10
2019-05-05T10:22:59.363Z,54.00
2019-05-05T10:24:10.102Z,54.60
2019-05-05T10:25:37.599Z,53.00
2019-05-05T10:26:43.816Z,51.00
2019-05-05T10:27:49.715Z,53.50
2019-05-05T10:28:54.865Z,53.70
2019-05-05T10:29:59.864Z,52.70
2019-05-05T10:31:04.821Z,52.40
2019-05-05T10:32:13.622Z,52.20
2019-05-05T10:33:17.840Z,53.00
2019-05-05T10:34:24.220Z,51.30
2019-05-05T10:35:29.181Z,50.70
2019-05-05T10:36:34.137Z,51.50
2019-05-05T10:37:39.125Z,52.10
2019-05-05T10:38:46.806Z,51.80
2019-05-05T10:39:54.371Z,52.40
2019-05-05T10:40:59.583Z,51.10
2019-05-05T10:42:04.527Z,49.20
2019-05-05T10:43:09.315Z,48.50
2019-05-05T10:44:14.698Z,48.90
2019-05-05T10:45:20.675Z,49.60
2019-05-05T10:46:25.418Z,50.60
2019-05-05T10:47:30.158Z,50.10
2019-05-05T10:48:34.992Z,48.90
2019-05-05T10:49:40.028Z,50.10
2019-05-05T10:50:45.186Z,50.70
2019-05-05T10:51:49.975Z,49.80
2019-05-05T10:52:55.775Z,51.10
2019-05-05T10:54:03.934Z,51.10
2019-05-05T10:55:08.405Z,52.30
2019-05-05T10:56:13.722Z,53.30
2019-05-05T10:57:18.617Z,53.60
2019-05-05T10:58:24.412Z,53.60
2019-05-05T10:59:29.264Z,54.10
2019-05-05T11:00:46.077Z,54.50
2019-05-05T11:01:50.755Z,53.00
2019-05-05T11:02:55.688Z,53.20
2019-05-05T11:04:00.599Z,52.90
2019-05-05T11:05:06.074Z,53.10
2019-05-05T11:06:11.013Z,53.10
2019-05-05T11:07:16.185Z,53.60
2019-05-05T11:08:21.013Z,53.20
2019-05-05T11:09:26.009Z,53.30
2019-05-05T11:10:33.950Z,53.30
2019-05-05T11:11:38.848Z,52.60
2019-05-05T11:12:44.356Z,51.30
2019-05-05T11:13:50.570Z,51.80
2019-05-05T11:14:55.470Z,50.70
2019-05-05T11:16:00.350Z,50.70
2019-05-05T11:17:05.246Z,49.40
2019-05-05T11:18:10.259Z,50.30
2019-05-05T11:19:15.251Z,50.70
2019-05-05T11:20:20.262Z,50.10
2019-05-05T11:21:25.150Z,50.80
2019-05-05T11:22:30.024Z,51.30
2019-05-05T11:23:35.593Z,51.60
2019-05-05T11:24:40.198Z,50.90
2019-05-05T11:25:45.346Z,51.20
2019-05-05T11:26:50.163Z,50.30
2019-05-05T11:27:55.575Z,48.10
2019-05-05T11:29:00.524Z,46.00
2019-05-05T11:30:26.522Z,47.80
2019-05-05T11:31:29.080Z,48.90
2019-05-05T11:32:51.593Z,49.70
2019-05-05T11:34:08.274Z,47.70
2019-05-05T11:35:13.950Z,47.80
2019-05-05T11:36:36.745Z,48.50
2019-05-05T11:37:43.701Z,49.20
2019-05-05T11:38:48.232Z,52.00
2019-05-05T11:39:53.676Z,52.60
2019-05-05T11:40:58.576Z,49.80
2019-05-05T11:42:04.391Z,49.20
2019-05-05T11:43:09.610Z,48.50
2019-05-05T11:44:15.146Z,47.40
2019-05-05T11:45:20.370Z,48.50
2019-05-05T11:46:25.312Z,47.20
2019-05-05T11:47:30.185Z,46.80
2019-05-05T11:48:35.053Z,46.00
2019-05-05T11:49:39.731Z,46.20
2019-05-05T11:50:44.562Z,46.80
2019-05-05T11:51:50.379Z,45.20
2019-05-05T11:52:55.225Z,45.90
2019-05-05T11:54:00.134Z,46.70
2019-05-05T11:55:11.655Z,47.00
2019-05-05T11:56:11.488Z,46.40
2019-05-05T11:57:16.182Z,45.70
2019-05-05T11:58:21.033Z,46.70
2019-05-05T11:59:26.790Z,48.80
2019-05-05T12:00:31.738Z,48.80
2019-05-05T12:01:41.310Z,50.10
2019-05-05T12:02:47.524Z,49.80
2019-05-05T12:03:53.593Z,48.20
2019-05-05T12:04:58.423Z,45.10
2019-05-05T12:06:04.000Z,44.70
2019-05-05T12:07:09.594Z,43.80
2019-05-05T12:08:14.771Z,45.10
2019-05-05T12:09:25.646Z,45.20
2019-05-05T12:10:58.468Z,45.20
2019-05-05T12:12:03.787Z,45.30
2019-05-05T12:13:09.669Z,44.50
2019-05-05T12:14:16.135Z,46.60
2019-05-05T12:15:20.878Z,45.70
2019-05-05T12:16:30.342Z,46.30
2019-05-05T12:17:35.550Z,45.70
2019-05-05T12:18:40.391Z,47.20
2019-05-05T12:19:45.115Z,46.80
2019-05-05T12:20:49.778Z,46.00
2019-05-05T12:21:54.884Z,45.70
2019-05-05T12:23:00.523Z,46.00
2019-05-05T12:24:14.208Z,46.30
2019-05-05T12:25:36.811Z,47.20
2019-05-05T12:26:59.292Z,47.60
2019-05-05T12:28:28.329Z,48.70
2019-05-05T12:29:37.548Z,49.10
2019-05-05T12:30:44.315Z,49.00
2019-05-05T12:31:51.226Z,48.10
2019-05-05T12:32:56.119Z,47.90
2019-05-05T12:34:01.120Z,48.00
2019-05-05T12:35:05.889Z,48.80
2019-05-05T12:36:11.284Z,48.80
2019-05-05T12:37:16.071Z,48.50
2019-05-05T12:38:20.641Z,48.30
2019-05-05T12:39:25.201Z,47.30
2019-05-05T12:40:29.890Z,49.20
2019-05-05T12:41:34.580Z,47.40
2019-05-05T12:42:39.216Z,48.80
2019-05-05T12:43:44.257Z,48.80
2019-05-05T12:45:04.472Z,48.00
2019-05-05T12:46:16.328Z,47.90
2019-05-05T12:47:34.200Z,47.80
2019-05-05T12:48:39.211Z,48.40
2019-05-05T12:49:44.023Z,49.20
2019-05-05T12:50:49.763Z,50.00
2019-05-05T12:51:54.491Z,50.40
2019-05-05T12:52:59.132Z,50.30
2019-05-05T12:54:04.511Z,50.90
2019-05-05T12:55:09.316Z,51.30
2019-05-05T12:56:14.572Z,50.70
2019-05-05T12:57:19.441Z,50.10
2019-05-05T12:58:24.032Z,49.80
2019-05-05T12:59:28.648Z,49.10
2019-05-05T13:00:33.929Z,49.10
2019-05-05T13:01:38.642Z,50.10
2019-05-05T13:02:44.388Z,49.40
2019-05-05T13:03:49.041Z,48.90
2019-05-05T13:04:53.679Z,48.30
2019-05-05T13:05:58.259Z,46.90
2019-05-05T13:07:04.961Z,46.10
2019-05-05T13:08:09.169Z,45.60
2019-05-05T13:09:14.351Z,45.20
2019-05-05T13:10:21.382Z,45.30
2019-05-05T13:11:28.747Z,45.60
2019-05-05T13:12:34.368Z,45.60
2019-05-05T13:13:39.602Z,45.30
2019-05-05T13:14:44.171Z,45.00
2019-05-05T13:15:48.792Z,45.20
2019-05-05T13:16:56.035Z,44.60
2019-05-05T13:17:59.859Z,44.80
2019-05-05T13:19:09.743Z,45.00
2019-05-05T13:20:21.480Z,44.50
2019-05-05T13:21:45.684Z,44.00
2019-05-05T13:22:58.410Z,43.50
2019-05-05T13:24:14.761Z,43.20
2019-05-05T13:25:29.168Z,42.90
2019-05-05T13:26:44.786Z,43.10
2019-05-05T13:27:49.519Z,44.30
2019-05-05T13:28:55.028Z,42.80
2019-05-05T13:30:00.110Z,43.20
2019-05-05T13:31:04.832Z,44.10
2019-05-05T13:32:09.575Z,44.70
2019-05-05T13:33:14.290Z,44.30
2019-05-05T13:34:19.114Z,44.10
2019-05-05T13:35:24.916Z,44.40
2019-05-05T13:36:29.735Z,43.70
2019-05-05T13:37:35.232Z,43.00
2019-05-05T13:38:40.060Z,42.00
2019-05-05T13:39:45.013Z,41.30
2019-05-05T13:40:49.818Z,41.10
2019-05-05T13:41:54.634Z,41.90
2019-05-05T13:42:59.569Z,42.70
2019-05-05T13:44:07.168Z,43.10
2019-05-05T13:45:20.283Z,44.80
2019-05-05T13:46:27.217Z,45.80
2019-05-05T13:47:34.367Z,45.60
2019-05-05T13:48:39.511Z,45.50
2019-05-05T13:49:44.538Z,45.70
2019-05-05T13:50:53.897Z,44.40
2019-05-05T13:52:04.483Z,44.40
2019-05-05T13:53:08.871Z,43.90
2019-05-05T13:54:14.716Z,44.60
2019-05-05T13:55:19.542Z,45.20
2019-05-05T13:56:24.594Z,46.60
2019-05-05T13:57:29.510Z,48.40
2019-05-05T13:58:34.355Z,49.20
2019-05-05T13:59:39.218Z,47.60
2019-05-05T14:00:44.213Z,46.60
2019-05-05T14:01:49.175Z,46.00
2019-05-05T14:02:55.013Z,46.60
2019-05-05T14:03:59.885Z,47.40
2019-05-05T14:05:06.874Z,47.60
2019-05-05T14:06:13.719Z,48.00
2019-05-05T14:07:18.516Z,47.90
2019-05-05T14:08:23.755Z,47.50
2019-05-05T14:09:28.548Z,49.10
2019-05-05T14:10:33.513Z,49.10
2019-05-05T14:11:38.468Z,48.90
2019-05-05T14:12:44.864Z,47.00
2019-05-05T14:13:49.870Z,47.00
2019-05-05T14:14:54.836Z,47.60
2019-05-05T14:15:59.940Z,47.50
2019-05-05T14:17:05.060Z,46.70
2019-05-05T14:18:10.201Z,46.90
2019-05-05T14:19:14.996Z,46.20
2019-05-05T14:20:19.834Z,45.30
2019-05-05T14:21:24.787Z,45.90
2019-05-05T14:22:30.584Z,45.50
2019-05-05T14:23:56.046Z,46.30
2019-05-05T14:25:19.903Z,46.70
2019-05-05T14:26:28.156Z,47.40